Time;durP1;ratioP1;P1;durP2;ratioP2;P2;SDS_P1;SDS_P2;PMS_P1;PMS_P2;Temp;Humidity;BMP_temperature;BMP_pressure;BME280_temperature;BME280_humidity;BME280_pressure;Samples;Min_cycle;Max_cycle;Signal;HPM_P1;HPM_P2
2022/08/04 00:00:12;;;;;;;6.88;1.60;;;;;;;22.99;73.25;100466.63;688447;28;1338;-82
2022/08/04 00:00:38;;;;;;;5.78;1.60;;;;;;;22.96;73.37;100472.97;687442;28;1715;-82
2022/08/04 00:01:06;;;;;;;6.18;1.58;;;;;;;22.98;73.55;100460.41;686234;28;4306;-81
2022/08/04 00:01:38;;;;;;;4.80;1.50;;;;;;;22.98;73.20;100467.56;687335;28;1728;-82
2022/08/04 00:02:08;;;;;;;5.82;1.70;;;;;;;22.98;73.10;100459.56;687293;28;1267;-82
2022/08/04 00:02:41;;;;;;;5.38;1.70;;;;;;;22.99;73.29;100458.63;687594;28;1354;-82
2022/08/04 00:03:27;;;;;;;5.75;1.75;;;;;;;23.01;72.94;100465.56;688629;28;1340;-82
2022/08/04 00:04:03;;;;;;;5.07;1.65;;;;;;;23.07;73.15;100465.19;689375;28;1410;-82
2022/08/04 00:04:32;;;;;;;5.88;1.73;;;;;;;23.08;73.11;100461.59;687550;28;4970;-82
2022/08/04 00:04:59;;;;;;;5.53;1.67;;;;;;;23.09;73.17;100457.09;689766;28;1470;-82
2022/08/04 00:05:33;;;;;;;5.05;1.63;;;;;;;23.08;72.95;100458.03;688846;28;1499;-82
2022/08/04 00:06:02;;;;;;;4.75;1.48;;;;;;;23.06;73.10;100455.47;689016;28;1521;-82
2022/08/04 00:06:40;;;;;;;5.93;1.80;;;;;;;23.04;73.11;100467.16;690844;28;1598;-82
2022/08/04 00:07:15;;;;;;;5.95;1.85;;;;;;;23.05;73.57;100468.91;692255;28;4395;-82
2022/08/04 00:07:43;;;;;;;6.95;1.67;;;;;;;23.01;73.72;100464.69;693493;28;1215;-82
2022/08/04 00:08:28;;;;;;;6.35;1.95;;;;;;;22.99;73.43;100462.13;694439;28;1432;-82
2022/08/04 00:08:57;;;;;;;6.95;1.88;;;;;;;22.98;73.54;100467.56;694376;28;1635;-81
2022/08/04 00:09:38;;;;;;;5.78;1.75;;;;;;;22.99;73.61;100464.78;694668;28;1529;-82
2022/08/04 00:10:02;;;;;;;6.25;1.60;;;;;;;22.98;73.77;100462.22;691096;28;4535;-83
2022/08/04 00:10:25;;;;;;;5.72;1.60;;;;;;;22.97;74.10;100450.72;690434;28;1263;-82
2022/08/04 00:10:49;;;;;;;8.18;1.80;;;;;;;22.98;73.85;100462.22;691061;28;1248;-82
2022/08/04 00:11:18;;;;;;;6.05;1.63;;;;;;;22.98;73.72;100468.41;691416;28;1876;-82
2022/08/04 00:11:44;;;;;;;6.07;1.58;;;;;;;22.98;73.86;100463.06;690193;28;1304;-82
2022/08/04 00:12:07;;;;;;;5.40;1.67;;;;;;;22.98;73.72;100463.06;691067;28;1644;-83
2022/08/04 00:12:33;;;;;;;6.65;1.67;;;;;;;22.96;74.32;100460.50;691526;28;1277;-82
2022/08/04 00:12:57;;;;;;;4.38;1.80;;;;;;;22.95;73.85;100455.25;683693;28;4308;-82
2022/08/04 00:13:23;;;;;;;5.95;1.88;;;;;;;22.94;74.11;100464.19;685861;28;940;-82
2022/08/04 00:13:53;;;;;;;6.90;1.67;;;;;;;22.93;73.74;100458.03;684933;28;1251;-82
2022/08/04 00:14:15;;;;;;;5.88;1.90;;;;;;;22.93;73.72;100454.50;686550;28;1213;-82
2022/08/04 00:14:39;;;;;;;6.40;1.88;;;;;;;22.93;74.09;100458.03;686074;28;1263;-82
2022/08/04 00:15:01;;;;;;;7.97;1.90;;;;;;;22.91;74.20;100454.56;686039;28;1469;-82
2022/08/04 00:15:23;;;;;;;10.88;1.95;;;;;;;22.91;73.87;100456.41;689261;28;1492;-82
2022/08/04 00:15:44;;;;;;;6.40;1.67;;;;;;;22.91;73.67;100456.41;689256;28;1212;-82
2022/08/04 00:16:08;;;;;;;4.88;1.58;;;;;;;22.90;74.16;100454.66;688319;28;4356;-82
2022/08/04 00:16:31;;;;;;;4.28;1.60;;;;;;;22.90;73.97;100454.66;688241;28;1485;-82
2022/08/04 00:16:53;;;;;;;5.95;1.65;;;;;;;22.89;74.70;100458.31;686191;28;1401;-82
2022/08/04 00:17:16;;;;;;;5.63;1.60;;;;;;;22.85;75.00;100464.78;685506;28;1503;-81
2022/08/04 00:17:45;;;;;;;5.25;1.42;;;;;;;22.82;74.81;100455.16;683967;28;1284;-82
2022/08/04 00:18:13;;;;;;;6.60;1.65;;;;;;;22.84;74.48;100455.06;682001;28;1980;-82
2022/08/04 00:18:54;;;;;;;6.47;1.65;;;;;;;22.83;74.39;100448.00;684845;28;1561;-82
2022/08/04 00:19:30;;;;;;;6.28;1.90;;;;;;;22.83;74.63;100454.22;684232;28;4886;-82
2022/08/04 00:19:58;;;;;;;5.45;1.60;;;;;;;22.82;75.01;100440.94;688338;28;1314;-82
2022/08/04 00:20:20;;;;;;;5.45;1.60;;;;;;;22.81;74.39;100447.25;692170;28;1751;-82
2022/08/04 00:20:41;;;;;;;6.35;1.67;;;;;;;22.82;74.79;100454.28;691691;28;1414;-82
2022/08/04 00:21:05;;;;;;;5.43;1.70;;;;;;;22.80;74.59;100454.38;692833;28;1696;-82
2022/08/04 00:21:27;;;;;;;5.35;1.77;;;;;;;22.78;75.13;100459.78;691290;28;1458;-82
2022/08/04 00:21:54;;;;;;;4.20;1.52;;;;;;;22.76;74.91;100450.16;688465;28;1295;-82
2022/08/04 00:22:20;;;;;;;5.35;1.90;;;;;;;22.76;74.96;100458.16;687397;28;4948;-82
2022/08/04 00:22:44;;;;;;;5.32;1.77;;;;;;;22.74;74.73;100460.91;687472;28;1263;-82
2022/08/04 00:23:06;;;;;;;7.13;1.80;;;;;;;22.73;74.91;100453.03;686612;28;1260;-82
2022/08/04 00:23:34;;;;;;;6.60;1.70;;;;;;;22.73;74.82;100479.66;684281;28;3551;-82
2022/08/04 00:24:25;;;;;;;6.05;1.90;;;;;;;22.74;74.86;100454.75;691786;28;1452;-82
2022/08/04 00:24:46;;;;;;;5.65;1.40;;;;;;;22.73;74.94;100467.19;692350;28;1486;-82
2022/08/04 00:25:07;;;;;;;5.50;1.83;;;;;;;22.71;74.98;100466.44;689809;28;4320;-82
2022/08/04 00:25:28;;;;;;;4.90;2.00;;;;;;;22.72;75.12;100461.94;689539;28;1484;-82
2022/08/04 00:25:48;;;;;;;4.07;1.70;;;;;;;22.72;74.76;100457.50;689529;28;1488;-82
2022/08/04 00:26:12;;;;;;;4.68;1.67;;;;;;;22.71;74.86;100466.44;689847;28;1191;-82
2022/08/04 00:26:33;;;;;;;5.25;1.60;;;;;;;22.74;74.73;100449.41;690699;28;1983;-82
2022/08/04 00:26:54;;;;;;;5.90;1.70;;;;;;;22.72;74.83;100449.50;689168;28;1804;-82
2022/08/04 00:27:15;;;;;;;5.20;1.70;;;;;;;22.71;75.05;100450.44;685520;28;1545;-82
2022/08/04 00:27:37;;;;;;;5.65;1.80;;;;;;;22.73;75.00;100447.69;686347;28;1694;-82
2022/08/04 00:28:00;;;;;;;4.60;1.70;;;;;;;22.72;75.07;100468.16;688680;28;4314;-82
2022/08/04 00:28:20;;;;;;;6.32;1.90;;;;;;;22.69;75.28;100449.66;690284;28;1447;-83
2022/08/04 00:28:41;;;;;;;7.50;1.95;;;;;;;22.69;74.90;100457.66;693524;28;1227;-82
2022/08/04 00:29:02;;;;;;;5.95;1.80;;;;;;;22.68;74.88;100474.63;691381;28;1614;-82
2022/08/04 00:29:24;;;;;;;6.88;1.65;;;;;;;22.65;75.06;100449.94;686767;28;1391;-82
2022/08/04 00:29:45;;;;;;;6.20;1.70;;;;;;;22.66;74.99;100460.50;689874;28;1451;-82
2022/08/04 00:30:06;;;;;;;7.10;1.90;;;;;;;22.66;75.25;100454.34;687430;28;1346;-83
2022/08/04 00:30:27;;;;;;;6.15;1.80;;;;;;;22.66;75.48;100471.16;685725;28;1604;-82
2022/08/04 00:30:47;;;;;;;6.55;1.60;;;;;;;22.64;75.91;100457.09;687443;28;1581;-82
2022/08/04 00:31:13;;;;;;;6.47;1.70;;;;;;;22.64;75.75;100446.44;687804;28;4306;-82
2022/08/04 00:31:34;;;;;;;6.47;1.73;;;;;;;22.61;75.59;100460.78;692042;28;1623;-82
2022/08/04 00:31:55;;;;;;;5.93;1.73;;;;;;;22.60;75.94;100460.88;688866;28;1609;-82
2022/08/04 00:32:29;;;;;;;5.75;1.67;;;;;;;22.59;75.86;100457.34;686027;28;1396;-82
2022/08/04 00:32:53;;;;;;;5.18;1.70;;;;;;;22.59;76.29;100456.50;685946;28;1382;-82
2022/08/04 00:33:50;;;;;;;6.60;1.90;;;;;;;22.58;75.65;100454.78;688701;28;1503;-81
2022/08/04 00:34:12;;;;;;;6.78;1.50;;;;;;;22.56;76.17;100456.69;691811;28;4358;-82
2022/08/04 00:34:33;;;;;;;5.25;1.60;;;;;;;22.56;76.02;100454.88;691196;28;1695;-82
2022/08/04 00:34:56;;;;;;;5.93;1.70;;;;;;;22.55;75.57;100455.81;691392;28;1806;-82
2022/08/04 00:35:17;;;;;;;6.35;1.88;;;;;;;22.56;75.94;100465.53;689071;28;1390;-82
2022/08/04 00:35:38;;;;;;;4.65;1.70;;;;;;;22.56;76.23;100462.00;691730;28;1235;-82
2022/08/04 00:36:02;;;;;;;6.38;1.95;;;;;;;22.56;76.99;100454.03;692560;28;1440;-81
2022/08/04 00:36:23;;;;;;;5.50;1.73;;;;;;;22.56;76.38;100452.19;691991;28;1612;-81
2022/08/04 00:36:44;;;;;;;6.90;1.70;;;;;;;22.55;75.98;100450.47;692950;28;1467;-82
2022/08/04 00:37:09;;;;;;;5.50;1.60;;;;;;;22.56;75.85;100456.69;690210;28;4321;-82
2022/08/04 00:37:31;;;;;;;5.72;1.77;;;;;;;22.57;75.75;100453.09;692907;28;1708;-82
2022/08/04 00:37:52;;;;;;;6.60;1.88;;;;;;;22.57;75.82;100455.75;690793;28;1570;-82
2022/08/04 00:38:15;;;;;;;5.07;1.83;;;;;;;22.56;75.97;100457.53;688773;28;1176;-81
2022/08/04 00:38:39;;;;;;;4.95;1.85;;;;;;;22.55;75.56;100450.47;684596;28;1510;-82
2022/08/04 00:38:59;;;;;;;4.47;1.90;;;;;;;22.56;75.80;100454.03;683035;29;1347;-82
2022/08/04 00:39:21;;;;;;;5.60;1.90;;;;;;;22.56;76.15;100446.03;683428;28;1206;-82
2022/08/04 00:39:43;;;;;;;5.07;1.63;;;;;;;22.55;75.94;100450.47;686140;28;1343;-82
2022/08/04 00:40:14;;;;;;;5.13;1.63;;;;;;;22.53;77.24;100451.53;687391;28;4542;-82
2022/08/04 00:40:51;;;;;;;5.90;1.50;;;;;;;22.53;76.64;100446.22;687251;28;1616;-82
2022/08/04 00:41:49;;;;;;;8.27;1.90;;;;;;;22.53;76.38;100447.06;689402;28;1157;-82
2022/08/04 00:42:39;;;;;;;4.47;1.63;;;;;;;22.50;76.63;100441.03;692319;28;2126;-82
2022/08/04 00:43:02;;;;;;;7.15;2.20;;;;;;;22.50;76.46;100449.91;683523;28;4302;-82
2022/08/04 00:43:41;;;;;;;7.10;2.00;;;;;;;22.48;76.94;100441.13;682387;28;1248;-82
2022/08/04 00:44:35;;;;;;;7.57;2.00;;;;;;;22.47;76.98;100446.56;692786;28;1474;-82
2022/08/04 00:44:55;;;;;;;5.32;1.80;;;;;;;22.45;77.88;100455.47;692207;28;1341;-82
2022/08/04 00:45:35;;;;;;;6.60;1.63;;;;;;;22.43;77.60;100445.84;690256;28;1189;-82
2022/08/04 00:45:58;;;;;;;5.60;1.60;;;;;;;22.42;78.20;100445.00;689106;28;4365;-82
2022/08/04 00:46:39;;;;;;;5.82;1.55;;;;;;;22.40;77.56;100446.94;688293;28;1646;-82
2022/08/04 00:47:31;;;;;;;5.18;1.90;;;;;;;22.36;77.29;100450.72;689751;28;1856;-81
2022/08/04 00:48:16;;;;;;;5.22;1.80;;;;;;;22.33;77.55;100445.50;690290;28;1295;-82
2022/08/04 00:48:54;;;;;;;6.57;1.80;;;;;;;22.31;77.29;100451.88;694566;28;1257;-81
2022/08/04 00:49:22;;;;;;;5.25;2.00;;;;;;;22.31;77.51;100452.75;693259;28;4843;-82
2022/08/04 00:50:02;;;;;;;5.95;1.65;;;;;;;22.32;78.12;100449.13;694720;28;1461;-81
2022/08/04 00:50:27;;;;;;;4.43;1.83;;;;;;;22.23;78.69;100447.00;690949;28;1592;-82
2022/08/04 00:51:18;;;;;;;6.90;1.70;;;;;;;22.21;78.61;100443.53;690720;28;1781;-81
2022/08/04 00:51:39;;;;;;;5.40;1.80;;;;;;;22.20;78.73;100441.84;690628;28;1217;-82
2022/08/04 00:52:11;;;;;;;4.97;1.70;;;;;;;22.19;78.09;100442.78;690077;28;4376;-81
2022/08/04 00:52:43;;;;;;;6.18;1.70;;;;;;;22.19;77.88;100448.09;694853;28;1448;-82
2022/08/04 00:53:15;;;;;;;5.63;1.77;;;;;;;22.18;77.82;100446.38;692292;28;1380;-82
2022/08/04 00:54:03;;;;;;;4.88;1.73;;;;;;;22.17;78.13;100440.22;690440;28;1263;-82
2022/08/04 00:54:45;;;;;;;5.20;1.73;;;;;;;22.16;78.20;100442.97;693216;28;1640;-81
2022/08/04 00:55:17;;;;;;;4.90;1.67;;;;;;;22.16;78.48;100442.97;687324;28;4387;-82
2022/08/04 00:56:04;;;;;;;5.35;1.60;;;;;;;22.13;78.86;100449.31;695709;28;1419;-82
2022/08/04 00:56:42;;;;;;;5.85;1.70;;;;;;;22.11;79.41;100441.44;694568;28;1256;-83
2022/08/04 00:57:14;;;;;;;6.22;1.80;;;;;;;22.10;79.02;100441.50;692798;28;1349;-82
2022/08/04 00:57:55;;;;;;;4.40;1.70;;;;;;;22.08;78.81;100446.06;694630;28;1598;-82
2022/08/04 00:58:55;;;;;;;7.75;1.98;;;;;;;22.05;78.91;100447.06;693864;28;4924;-82
2022/08/04 00:59:34;;;;;;;5.57;1.90;;;;;;;22.05;79.66;100447.06;692922;28;1262;-81
2022/08/04 01:00:16;;;;;;;6.80;2.00;;;;;;;22.00;79.11;100450.94;692565;28;1215;-81
2022/08/04 01:00:59;;;;;;;6.82;1.70;;;;;;;21.98;79.35;100453.69;695163;28;1270;-83
2022/08/04 01:01:34;;;;;;;4.82;1.77;;;;;;;21.98;79.39;100444.88;679196;28;4701;-82
2022/08/04 01:02:20;;;;;;;6.65;2.00;;;;;;;21.97;79.71;100451.97;690658;28;1145;-81
2022/08/04 01:03:16;;;;;;;6.15;1.67;;;;;;;22.01;79.59;100447.34;690047;28;1051;-81
2022/08/04 01:04:03;;;;;;;5.97;1.70;;;;;;;22.00;79.88;100453.59;688281;28;1403;-82
2022/08/04 01:04:28;;;;;;;5.72;1.90;;;;;;;21.98;79.47;100448.38;691609;28;5072;-81
2022/08/04 01:05:27;;;;;;;5.72;1.80;;;;;;;21.97;79.46;100451.13;689338;28;1364;-81
2022/08/04 01:06:15;;;;;;;5.43;1.90;;;;;;;21.92;79.96;100454.91;693022;28;1506;-80
2022/08/04 01:06:51;;;;;;;4.97;1.70;;;;;;;21.91;79.28;100453.16;692283;28;1969;-81
2022/08/04 01:07:23;;;;;;;4.82;1.73;;;;;;;21.92;79.89;100446.06;687734;28;5416;-81
2022/08/04 01:08:14;;;;;;;4.60;1.90;;;;;;;21.91;80.22;100449.66;691229;28;888;-81
2022/08/04 01:08:44;;;;;;;7.60;1.90;;;;;;;21.86;80.28;100446.38;691659;28;1331;-82
2022/08/04 01:09:32;;;;;;;6.32;1.80;;;;;;;21.86;80.00;100446.38;694231;28;1630;-82
2022/08/04 01:10:15;;;;;;;5.10;1.77;;;;;;;21.86;80.26;100441.06;697564;28;4304;-80
2022/08/04 01:11:09;;;;;;;5.10;1.73;;;;;;;21.87;79.79;100453.44;690485;28;1496;-81
2022/08/04 01:11:48;;;;;;;5.88;1.90;;;;;;;21.85;79.77;100445.53;694562;28;1419;-80
2022/08/04 01:12:15;;;;;;;4.78;1.98;;;;;;;21.84;80.36;100450.97;694756;28;1707;-81
2022/08/04 01:13:10;;;;;;;6.70;2.00;;;;;;;21.83;80.43;100452.75;692070;28;1532;-81
2022/08/04 01:13:48;;;;;;;5.82;1.90;;;;;;;21.82;80.46;100451.03;689547;28;5812;-81
2022/08/04 01:14:21;;;;;;;4.03;1.80;;;;;;;21.80;80.25;100447.59;688395;28;1439;-80
2022/08/04 01:14:56;;;;;;;5.35;1.90;;;;;;;21.79;80.53;100443.22;691188;28;1346;-81
2022/08/04 01:15:30;;;;;;;6.30;1.85;;;;;;;21.79;80.60;100445.88;688141;28;1246;-81
2022/08/04 01:15:51;;;;;;;4.50;1.85;;;;;;;21.77;80.95;100448.63;689833;28;2493;-81
2022/08/04 01:16:34;;;;;;;4.87;1.80;;;;;;;21.74;80.69;100437.31;690665;28;4358;-81
2022/08/04 01:17:14;;;;;;;6.20;1.92;;;;;;;21.74;81.01;100469.22;692406;28;1267;-81
2022/08/04 01:17:34;;;;;;;5.65;1.67;;;;;;;21.74;80.59;100440.81;689250;28;1619;-81
2022/08/04 01:18:00;;;;;;;6.70;1.77;;;;;;;21.76;79.95;100444.22;690355;28;1335;-81
2022/08/04 01:18:44;;;;;;;5.95;1.88;;;;;;;21.75;80.64;100439.00;691890;28;1187;-82
2022/08/04 01:19:19;;;;;;;4.45;1.80;;;;;;;21.77;80.13;100443.28;691606;28;4331;-81
2022/08/04 01:19:39;;;;;;;5.00;1.67;;;;;;;21.77;80.45;100442.44;694442;28;912;-82
2022/08/04 01:20:15;;;;;;;5.27;1.80;;;;;;;21.73;80.77;100440.91;693449;28;1714;-81
2022/08/04 01:21:05;;;;;;;5.60;1.90;;;;;;;21.72;80.68;100440.06;691726;28;1589;-81
2022/08/04 01:21:29;;;;;;;5.82;1.83;;;;;;;21.68;80.87;100438.50;691895;28;1541;-81
2022/08/04 01:22:17;;;;;;;6.15;1.90;;;;;;;21.66;80.71;100440.38;688793;28;1000;-82
2022/08/04 01:23:08;;;;;;;5.55;1.80;;;;;;;21.66;81.05;100429.72;694211;28;5314;-81
2022/08/04 01:23:50;;;;;;;3.53;1.83;;;;;;;21.71;80.17;100435.66;691521;28;1468;-81
2022/08/04 01:24:41;;;;;;;4.50;1.80;;;;;;;21.72;79.89;100433.84;691236;28;1634;-81
2022/08/04 01:25:10;;;;;;;5.85;2.10;;;;;;;21.73;80.83;100435.56;693810;28;4407;-81
2022/08/04 01:25:54;;;;;;;5.35;1.88;;;;;;;21.72;80.01;100436.50;696464;28;1571;-82
2022/08/04 01:26:54;;;;;;;5.25;1.83;;;;;;;21.72;80.48;100434.72;695414;28;2690;-82
2022/08/04 01:27:25;;;;;;;4.25;1.70;;;;;;;21.68;80.88;100433.19;694658;28;1535;-81
2022/08/04 01:28:31;;;;;;;5.53;1.70;;;;;;;21.62;81.21;100430.84;694945;28;1675;-81
2022/08/04 01:29:08;;;;;;;5.50;1.80;;;;;;;21.58;81.01;100442.59;679698;28;4678;-81
2022/08/04 01:29:45;;;;;;;5.25;1.80;;;;;;;21.54;80.42;100431.25;683850;28;1407;-81
2022/08/04 01:30:05;;;;;;;5.45;1.67;;;;;;;21.53;82.20;100450.84;687391;28;1587;-82
2022/08/04 01:30:26;;;;;;;4.22;1.77;;;;;;;21.53;81.47;100439.31;688085;28;1648;-81
2022/08/04 01:30:56;;;;;;;5.85;1.85;;;;;;;21.51;81.13;100455.31;691144;28;1672;-82
2022/08/04 01:31:41;;;;;;;5.03;1.75;;;;;;;21.51;80.89;100425.22;689882;28;1467;-82
2022/08/04 01:32:27;;;;;;;5.03;1.90;;;;;;;21.52;80.96;100426.94;691265;28;1457;-81
2022/08/04 01:32:52;;;;;;;4.70;1.90;;;;;;;21.53;81.49;100434.88;686636;28;1509;-81
2022/08/04 01:33:17;;;;;;;5.30;1.95;;;;;;;21.53;81.06;100426.91;686214;28;1280;-82
2022/08/04 01:33:40;;;;;;;5.00;1.95;;;;;;;21.53;81.14;100431.34;688125;28;1216;-81
2022/08/04 01:34:05;;;;;;;5.25;1.67;;;;;;;21.52;80.88;100424.28;687482;28;4293;-81
2022/08/04 01:34:35;;;;;;;4.72;1.70;;;;;;;21.54;80.94;100431.25;686569;28;1484;-82
2022/08/04 01:35:23;;;;;;;4.18;1.80;;;;;;;21.51;81.05;100435.88;686540;28;1373;-80
2022/08/04 01:36:06;;;;;;;5.55;1.90;;;;;;;21.51;82.29;100430.53;685141;28;2000;-81
2022/08/04 01:36:33;;;;;;;4.60;1.77;;;;;;;21.53;81.78;100424.22;688171;28;1563;-81
2022/08/04 01:36:58;;;;;;;4.07;1.80;;;;;;;21.47;82.52;100429.84;690417;28;4445;-81
2022/08/04 01:37:45;;;;;;;5.60;1.95;;;;;;;21.42;81.86;100438.06;694188;28;1551;-81
2022/08/04 01:38:24;;;;;;;5.53;1.90;;;;;;;21.37;82.04;100429.47;685672;28;1670;-81
2022/08/04 01:38:46;;;;;;;4.82;1.80;;;;;;;21.34;82.26;100429.66;687136;28;1469;-80
2022/08/04 01:39:58;;;;;;;4.13;1.80;;;;;;;21.33;83.55;100433.25;689625;28;1173;-82
2022/08/04 01:40:21;;;;;;;4.28;2.00;;;;;;;21.33;81.85;100425.25;690286;28;4916;-81
2022/08/04 01:40:43;;;;;;;6.50;2.10;;;;;;;21.34;82.41;100440.28;694836;28;1341;-81
2022/08/04 01:41:09;;;;;;;6.93;2.15;;;;;;;21.26;82.98;100426.53;694965;28;1261;-82
2022/08/04 01:41:33;;;;;;;5.20;1.95;;;;;;;21.18;83.55;100426.94;690049;28;1400;-82
2022/08/04 01:41:57;;;;;;;5.80;2.00;;;;;;;21.20;82.39;100434.84;690987;28;1106;-82
2022/08/04 01:42:21;;;;;;;5.43;1.83;;;;;;;21.17;83.78;100440.31;691587;28;1532;-81
2022/08/04 01:42:45;;;;;;;4.65;1.80;;;;;;;21.12;83.13;100421.97;691155;28;956;-82
2022/08/04 01:43:08;;;;;;;3.78;1.70;;;;;;;21.15;83.71;100428.91;690163;28;4299;-82
2022/08/04 01:43:31;;;;;;;4.97;1.73;;;;;;;21.16;83.82;100438.63;689802;28;2044;-82
2022/08/04 01:43:54;;;;;;;6.13;2.20;;;;;;;21.13;83.08;100441.41;688020;28;1602;-82
2022/08/04 01:44:26;;;;;;;4.63;1.80;;;;;;;21.14;83.38;100427.19;687406;28;1098;-82
2022/08/04 01:44:51;;;;;;;4.75;1.90;;;;;;;21.16;83.46;100430.63;690198;28;1139;-82
2022/08/04 01:45:15;;;;;;;3.67;1.65;;;;;;;21.18;82.93;100434.06;692351;28;995;-82
2022/08/04 01:45:39;;;;;;;5.95;2.00;;;;;;;21.19;83.38;100427.81;694617;28;1350;-81
2022/08/04 01:46:04;;;;;;;6.00;1.80;;;;;;;21.11;83.24;100422.88;695470;28;4369;-81
2022/08/04 01:46:25;;;;;;;4.47;1.88;;;;;;;21.13;83.13;100436.09;693309;28;1284;-81
2022/08/04 01:46:51;;;;;;;5.50;2.00;;;;;;;21.13;83.08;100420.16;692513;28;1973;-82
2022/08/04 01:47:19;;;;;;;5.70;1.73;;;;;;;21.09;83.01;100422.97;691660;28;1335;-82
2022/08/04 01:47:50;;;;;;;6.47;2.00;;;;;;;21.10;82.66;100413.22;690856;28;976;-82
2022/08/04 01:48:11;;;;;;;6.25;1.88;;;;;;;21.10;82.69;100421.19;688568;28;1206;-82
2022/08/04 01:48:37;;;;;;;5.00;1.80;;;;;;;21.11;82.62;100422.03;687481;28;1352;-82
2022/08/04 01:48:59;;;;;;;4.60;1.85;;;;;;;21.09;82.59;100420.31;689362;28;4300;-82
2022/08/04 01:49:28;;;;;;;5.57;2.05;;;;;;;21.12;82.54;100423.75;687211;28;1625;-81
2022/08/04 01:49:50;;;;;;;5.70;2.00;;;;;;;21.11;82.98;100419.38;688021;28;1379;-82
2022/08/04 01:50:15;;;;;;;4.97;1.70;;;;;;;21.11;83.14;100416.72;685348;28;1408;-82
2022/08/04 01:50:37;;;;;;;4.90;1.63;;;;;;;21.09;83.51;100417.66;689239;28;1251;-82
2022/08/04 01:51:03;;;;;;;5.82;2.05;;;;;;;21.07;83.10;100421.31;692592;28;1613;-82
2022/08/04 01:51:27;;;;;;;5.35;1.92;;;;;;;21.06;83.62;100415.16;692488;28;1131;-81
2022/08/04 01:51:52;;;;;;;5.07;1.83;;;;;;;21.01;83.52;100424.31;693474;28;1372;-82
2022/08/04 01:52:19;;;;;;;6.28;1.90;;;;;;;21.02;82.92;100421.59;686574;28;4734;-82
2022/08/04 01:52:41;;;;;;;4.45;1.70;;;;;;;20.98;84.11;100417.38;686733;28;1622;-82
2022/08/04 01:53:03;;;;;;;5.30;1.85;;;;;;;20.94;84.01;100422.94;686504;28;1367;-82
2022/08/04 01:53:35;;;;;;;4.90;1.80;;;;;;;20.96;83.88;100445.81;686155;28;1082;-82
2022/08/04 01:53:56;;;;;;;5.10;1.85;;;;;;;20.95;83.57;100421.97;687090;28;1153;-83
2022/08/04 01:54:17;;;;;;;5.85;2.00;;;;;;;20.94;84.14;100457.47;690856;28;1217;-81
2022/08/04 01:54:44;;;;;;;5.70;2.00;;;;;;;20.92;84.11;100449.56;690247;28;1329;-82
2022/08/04 01:55:08;;;;;;;6.05;2.10;;;;;;;20.89;83.97;100439.09;690603;28;4294;-82
2022/08/04 01:55:30;;;;;;;5.20;1.98;;;;;;;20.87;84.21;100441.81;691148;28;1469;-82
2022/08/04 01:56:03;;;;;;;5.65;1.60;;;;;;;20.87;84.07;100423.22;689455;28;947;-81
2022/08/04 01:56:33;;;;;;;5.45;1.70;;;;;;;20.84;84.27;100443.81;690027;28;1251;-82
2022/08/04 01:56:54;;;;;;;5.53;2.00;;;;;;;20.84;84.38;100441.16;689519;28;1912;-82
2022/08/04 01:57:18;;;;;;;4.43;1.90;;;;;;;20.82;84.76;100449.16;689695;28;1331;-81
2022/08/04 01:57:52;;;;;;;4.40;1.90;;;;;;;20.79;84.82;100435.19;689244;28;1404;-82
2022/08/04 01:58:17;;;;;;;4.65;2.00;;;;;;;20.80;84.94;100431.63;684769;28;4838;-82
2022/08/04 01:58:39;;;;;;;4.97;1.83;;;;;;;20.84;84.28;100430.53;685309;28;1431;-82
2022/08/04 01:59:02;;;;;;;5.45;1.90;;;;;;;20.84;84.30;100428.72;687450;28;1327;-82
2022/08/04 01:59:23;;;;;;;5.20;1.73;;;;;;;20.83;84.53;100434.09;692019;28;1216;-82
2022/08/04 01:59:46;;;;;;;5.65;1.70;;;;;;;20.83;84.51;100426.13;693228;28;1718;-82
2022/08/04 02:00:21;;;;;;;5.00;1.80;;;;;;;20.81;84.89;100426.22;691018;28;2079;-82
2022/08/04 02:00:54;;;;;;;5.30;2.03;;;;;;;20.83;85.17;100429.63;687606;28;1400;-82
2022/08/04 02:01:15;;;;;;;6.45;1.98;;;;;;;20.84;84.84;100433.19;677385;28;4729;-83
2022/08/04 02:01:35;;;;;;;5.53;2.00;;;;;;;20.82;84.77;100427.91;690906;28;1152;-83
2022/08/04 02:01:58;;;;;;;4.97;1.95;;;;;;;20.83;84.91;100424.31;689170;28;1961;-82
2022/08/04 02:02:23;;;;;;;4.07;2.00;;;;;;;20.86;84.69;100428.63;685446;28;2284;-81
2022/08/04 02:02:45;;;;;;;4.93;2.00;;;;;;;20.88;84.07;100434.75;685065;28;1243;-82
2022/08/04 02:03:05;;;;;;;5.30;1.90;;;;;;;20.89;84.50;100428.47;687892;28;1647;-82
2022/08/04 02:03:26;;;;;;;6.57;2.00;;;;;;;20.85;85.18;100438.41;687501;28;1946;-82
2022/08/04 02:03:46;;;;;;;6.00;2.00;;;;;;;20.84;86.21;100425.22;687098;28;1754;-83
2022/08/04 02:04:16;;;;;;;4.50;1.90;;;;;;;20.80;86.89;100428.97;676340;28;4358;-82
2022/08/04 02:04:39;;;;;;;5.43;1.90;;;;;;;20.79;86.86;100427.22;685784;28;1236;-82
2022/08/04 02:04:59;;;;;;;4.68;1.88;;;;;;;20.74;87.16;100430.97;690616;28;1766;-82
2022/08/04 02:05:23;;;;;;;5.20;2.03;;;;;;;20.67;87.02;100423.34;689986;28;1338;-82
2022/08/04 02:05:46;;;;;;;4.50;1.90;;;;;;;20.65;85.94;100419.94;692849;28;1000;-82
2022/08/04 02:06:33;;;;;;;4.75;1.85;;;;;;;20.69;85.49;100427.69;691891;28;1307;-82
2022/08/04 02:07:09;;;;;;;4.50;1.80;;;;;;;20.79;85.17;100429.88;690859;28;4374;-82
2022/08/04 02:07:44;;;;;;;6.90;2.10;;;;;;;20.72;87.11;100430.19;693249;28;1341;-82
2022/08/04 02:08:28;;;;;;;5.20;2.20;;;;;;;20.63;87.47;100427.97;694931;28;1576;-82
2022/08/04 02:09:10;;;;;;;5.20;2.03;;;;;;;20.65;86.50;100428.75;697478;28;1955;-82
2022/08/04 02:09:52;;;;;;;6.20;2.00;;;;;;;20.66;86.03;100425.16;693275;28;1862;-82
2022/08/04 02:10:58;;;;;;;4.32;1.80;;;;;;;20.66;86.17;100429.63;680141;28;4845;-82
2022/08/04 02:11:22;;;;;;;5.55;2.10;;;;;;;20.63;86.00;100432.41;691504;28;1531;-82
2022/08/04 02:12:03;;;;;;;5.80;2.03;;;;;;;20.61;85.94;100429.84;693975;28;1754;-82
2022/08/04 02:12:41;;;;;;;5.93;1.77;;;;;;;20.64;86.29;100423.53;693920;28;1143;-82
2022/08/04 02:13:09;;;;;;;6.85;2.00;;;;;;;20.62;86.39;100436.03;686339;28;4333;-82
2022/08/04 02:13:40;;;;;;;5.53;1.90;;;;;;;20.59;86.69;100431.72;686498;28;1674;-82
2022/08/04 02:14:48;;;;;;;4.07;1.70;;;;;;;20.63;86.15;100432.41;686466;28;1781;-82
2022/08/04 02:15:24;;;;;;;4.85;1.88;;;;;;;20.57;86.14;100429.16;694648;28;1274;-82
2022/08/04 02:16:03;;;;;;;5.00;1.80;;;;;;;20.57;86.06;100423.84;693424;28;1757;-82
2022/08/04 02:16:39;;;;;;;4.75;1.90;;;;;;;20.53;87.52;100432.91;694588;28;4808;-82
2022/08/04 02:16:59;;;;;;;5.45;1.90;;;;;;;20.51;87.94;100425.94;695268;28;1487;-82
2022/08/04 02:17:38;;;;;;;5.10;1.90;;;;;;;20.48;89.01;100424.28;695134;28;1274;-82
2022/08/04 02:18:05;;;;;;;4.45;1.83;;;;;;;20.48;87.75;100426.06;693587;28;1293;-82
2022/08/04 02:18:50;;;;;;;4.97;2.10;;;;;;;20.53;87.30;100424.06;695179;28;1459;-82
2022/08/04 02:19:18;;;;;;;5.35;2.13;;;;;;;20.60;86.16;100420.16;695653;28;4284;-82
2022/08/04 02:19:56;;;;;;;5.13;2.08;;;;;;;20.58;88.32;100424.69;691926;28;1438;-81
2022/08/04 02:20:34;;;;;;;4.35;1.83;;;;;;;20.46;89.01;100425.31;689019;28;1248;-82
2022/08/04 02:20:59;;;;;;;4.75;1.80;;;;;;;20.41;88.76;100426.38;688182;28;1355;-82
2022/08/04 02:21:28;;;;;;;4.13;1.90;;;;;;;20.38;88.91;100423.91;689521;28;1166;-82
2022/08/04 02:22:01;;;;;;;4.53;1.98;;;;;;;20.34;89.10;100424.97;689817;28;1535;-82
2022/08/04 02:22:27;;;;;;;5.80;2.10;;;;;;;20.31;89.61;100422.50;687847;28;5143;-82
2022/08/04 02:23:03;;;;;;;5.90;1.92;;;;;;;20.36;87.63;100423.09;690558;28;1350;-82
2022/08/04 02:23:35;;;;;;;4.45;1.90;;;;;;;20.28;88.82;100427.94;694899;28;1495;-82
2022/08/04 02:24:04;;;;;;;4.85;2.17;;;;;;;20.27;88.52;100422.69;692135;28;1800;-82
2022/08/04 02:24:32;;;;;;;5.20;2.17;;;;;;;20.31;88.13;100425.13;691755;28;1314;-82
2022/08/04 02:25:21;;;;;;;6.03;2.10;;;;;;;20.26;89.24;100421.84;691322;28;4324;-82
2022/08/04 02:27:34;;;;;;;;;;;;;;;;;;;;;
2022/08/04 02:28:22;;;;;;;5.28;2.13;;;;;;;20.15;89.95;100429.47;689457;28;4526;-81
2022/08/04 02:28:50;;;;;;;5.25;2.00;;;;;;;20.16;89.13;100423.22;692990;28;856;-80
2022/08/04 02:29:25;;;;;;;4.50;1.80;;;;;;;20.18;88.96;100416.06;689403;28;1287;-81
2022/08/04 02:29:59;;;;;;;5.03;1.90;;;;;;;20.21;89.03;100421.19;688613;28;1762;-81
2022/08/04 02:30:26;;;;;;;5.18;2.25;;;;;;;20.22;89.03;100433.53;689340;28;1160;-82